sensor_id;sensor_type;location;lat;lon;timestamp;P1;durP1;ratioP1;P2;durP2;ratioP2
75488;SDS011;64069;46.396;48.102;2023-09-07T00:01:31;9.68;;;4.35;;
75488;SDS011;64069;46.396;48.102;2023-09-07T00:03:57;11.77;;;5.40;;
75488;SDS011;64069;46.396;48.102;2023-09-07T00:06:24;14.30;;;5.78;;
75488;SDS011;64069;46.396;48.102;2023-09-07T00:08:51;10.98;;;5.57;;
75488;SDS011;64069;46.396;48.102;2023-09-07T00:11:17;11.50;;;5.65;;
75488;SDS011;64069;46.396;48.102;2023-09-07T00:13:43;11.75;;;5.20;;
75488;SDS011;64069;46.396;48.102;2023-09-07T00:16:09;11.68;;;5.10;;
75488;SDS011;64069;46.396;48.102;2023-09-07T00:18:35;10.73;;;5.55;;
75488;SDS011;64069;46.396;48.102;2023-09-07T00:21:02;10.52;;;5.75;;
75488;SDS011;64069;46.396;48.102;2023-09-07T00:23:28;12.40;;;6.43;;
75488;SDS011;64069;46.396;48.102;2023-09-07T00:25:55;18.52;;;6.70;;
75488;SDS011;64069;46.396;48.102;2023-09-07T00:28:21;11.90;;;6.60;;
75488;SDS011;64069;46.396;48.102;2023-09-07T00:30:48;15.30;;;6.30;;
75488;SDS011;64069;46.396;48.102;2023-09-07T00:33:13;14.07;;;7.45;;
75488;SDS011;64069;46.396;48.102;2023-09-07T00:35:39;13.55;;;6.35;;
75488;SDS011;64069;46.396;48.102;2023-09-07T00:38:05;12.68;;;6.22;;
75488;SDS011;64069;46.396;48.102;2023-09-07T00:40:31;12.98;;;6.03;;
75488;SDS011;64069;46.396;48.102;2023-09-07T00:42:58;11.77;;;6.32;;
75488;SDS011;64069;46.396;48.102;2023-09-07T00:45:25;11.07;;;5.85;;
75488;SDS011;64069;46.396;48.102;2023-09-07T00:47:51;12.05;;;5.30;;
75488;SDS011;64069;46.396;48.102;2023-09-07T00:50:18;12.18;;;5.70;;
75488;SDS011;64069;46.396;48.102;2023-09-07T00:52:44;12.98;;;5.82;;
75488;SDS011;64069;46.396;48.102;2023-09-07T00:55:11;9.63;;;5.05;;
75488;SDS011;64069;46.396;48.102;2023-09-07T00:57:38;10.55;;;5.55;;
75488;SDS011;64069;46.396;48.102;2023-09-07T01:00:05;12.95;;;5.68;;
75488;SDS011;64069;46.396;48.102;2023-09-07T01:02:33;14.35;;;7.78;;
75488;SDS011;64069;46.396;48.102;2023-09-07T01:04:59;14.55;;;6.75;;
75488;SDS011;64069;46.396;48.102;2023-09-07T01:07:35;11.50;;;6.43;;
75488;SDS011;64069;46.396;48.102;2023-09-07T01:10:05;16.48;;;7.50;;
75488;SDS011;64069;46.396;48.102;2023-09-07T01:12:33;15.05;;;6.70;;
75488;SDS011;64069;46.396;48.102;2023-09-07T01:14:59;15.15;;;7.47;;
75488;SDS011;64069;46.396;48.102;2023-09-07T01:17:24;13.73;;;6.95;;
75488;SDS011;64069;46.396;48.102;2023-09-07T01:19:51;16.05;;;7.30;;
75488;SDS011;64069;46.396;48.102;2023-09-07T01:22:18;14.23;;;6.68;;
75488;SDS011;64069;46.396;48.102;2023-09-07T01:24:49;14.40;;;6.97;;
75488;SDS011;64069;46.396;48.102;2023-09-07T01:27:17;26.33;;;7.20;;
75488;SDS011;64069;46.396;48.102;2023-09-07T01:29:43;13.90;;;6.25;;
75488;SDS011;64069;46.396;48.102;2023-09-07T01:32:09;15.00;;;7.18;;
75488;SDS011;64069;46.396;48.102;2023-09-07T01:34:39;15.30;;;7.30;;
75488;SDS011;64069;46.396;48.102;2023-09-07T01:37:05;12.80;;;6.03;;
75488;SDS011;64069;46.396;48.102;2023-09-07T01:39:31;14.23;;;7.03;;
75488;SDS011;64069;46.396;48.102;2023-09-07T01:41:57;19.40;;;7.63;;
75488;SDS011;64069;46.396;48.102;2023-09-07T01:44:23;19.25;;;6.70;;
75488;SDS011;64069;46.396;48.102;2023-09-07T01:46:51;14.23;;;6.38;;
75488;SDS011;64069;46.396;48.102;2023-09-07T01:49:17;16.52;;;6.57;;
75488;SDS011;64069;46.396;48.102;2023-09-07T01:51:43;17.65;;;6.70;;
75488;SDS011;64069;46.396;48.102;2023-09-07T01:54:09;20.63;;;6.57;;
75488;SDS011;64069;46.396;48.102;2023-09-07T01:56:36;38.33;;;8.00;;
75488;SDS011;64069;46.396;48.102;2023-09-07T01:59:02;17.23;;;6.05;;
75488;SDS011;64069;46.396;48.102;2023-09-07T02:01:30;19.50;;;7.22;;
75488;SDS011;64069;46.396;48.102;2023-09-07T02:03:57;14.27;;;6.90;;
75488;SDS011;64069;46.396;48.102;2023-09-07T02:06:23;25.98;;;7.72;;
75488;SDS011;64069;46.396;48.102;2023-09-07T02:08:49;39.85;;;8.27;;
75488;SDS011;64069;46.396;48.102;2023-09-07T02:11:15;20.52;;;8.18;;
75488;SDS011;64069;46.396;48.102;2023-09-07T02:13:41;39.10;;;8.23;;
75488;SDS011;64069;46.396;48.102;2023-09-07T02:16:08;27.55;;;9.02;;
75488;SDS011;64069;46.396;48.102;2023-09-07T02:18:35;24.23;;;8.32;;
75488;SDS011;64069;46.396;48.102;2023-09-07T02:21:03;24.85;;;8.63;;
75488;SDS011;64069;46.396;48.102;2023-09-07T02:23:31;20.42;;;7.95;;
75488;SDS011;64069;46.396;48.102;2023-09-07T02:25:57;31.95;;;10.45;;
75488;SDS011;64069;46.396;48.102;2023-09-07T02:28:24;25.90;;;8.50;;
75488;SDS011;64069;46.396;48.102;2023-09-07T02:30:53;68.22;;;9.95;;
75488;SDS011;64069;46.396;48.102;2023-09-07T02:33:20;25.48;;;7.72;;
75488;SDS011;64069;46.396;48.102;2023-09-07T02:35:49;19.98;;;6.85;;
75488;SDS011;64069;46.396;48.102;2023-09-07T02:38:15;20.27;;;7.07;;
75488;SDS011;64069;46.396;48.102;2023-09-07T02:40:43;20.98;;;7.53;;
75488;SDS011;64069;46.396;48.102;2023-09-07T02:43:10;19.02;;;6.43;;
75488;SDS011;64069;46.396;48.102;2023-09-07T02:45:36;12.88;;;5.78;;
75488;SDS011;64069;46.396;48.102;2023-09-07T02:48:03;14.93;;;5.88;;
75488;SDS011;64069;46.396;48.102;2023-09-07T02:50:31;15.48;;;6.72;;
75488;SDS011;64069;46.396;48.102;2023-09-07T02:53:02;14.73;;;6.13;;
75488;SDS011;64069;46.396;48.102;2023-09-07T02:55:30;15.40;;;6.82;;
75488;SDS011;64069;46.396;48.102;2023-09-07T02:57:56;15.10;;;7.53;;
75488;SDS011;64069;46.396;48.102;2023-09-07T03:00:23;16.70;;;6.82;;
75488;SDS011;64069;46.396;48.102;2023-09-07T03:02:49;11.77;;;5.90;;
75488;SDS011;64069;46.396;48.102;2023-09-07T03:05:16;12.23;;;6.07;;
75488;SDS011;64069;46.396;48.102;2023-09-07T03:07:44;9.55;;;5.20;;
75488;SDS011;64069;46.396;48.102;2023-09-07T03:10:11;18.00;;;6.40;;
75488;SDS011;64069;46.396;48.102;2023-09-07T03:12:38;25.73;;;7.35;;
75488;SDS011;64069;46.396;48.102;2023-09-07T03:15:04;21.40;;;7.53;;
75488;SDS011;64069;46.396;48.102;2023-09-07T03:17:31;16.60;;;7.32;;
75488;SDS011;64069;46.396;48.102;2023-09-07T03:19:57;18.98;;;7.00;;
75488;SDS011;64069;46.396;48.102;2023-09-07T03:22:23;12.68;;;4.82;;
75488;SDS011;64069;46.396;48.102;2023-09-07T03:24:50;10.20;;;5.00;;
75488;SDS011;64069;46.396;48.102;2023-09-07T03:27:16;15.73;;;5.10;;
75488;SDS011;64069;46.396;48.102;2023-09-07T03:29:44;11.77;;;3.42;;
75488;SDS011;64069;46.396;48.102;2023-09-07T03:32:10;14.25;;;3.25;;
75488;SDS011;64069;46.396;48.102;2023-09-07T03:34:36;10.43;;;3.58;;
75488;SDS011;64069;46.396;48.102;2023-09-07T03:37:02;10.57;;;3.60;;
75488;SDS011;64069;46.396;48.102;2023-09-07T03:39:32;7.60;;;2.92;;
75488;SDS011;64069;46.396;48.102;2023-09-07T03:41:58;8.48;;;3.88;;
75488;SDS011;64069;46.396;48.102;2023-09-07T03:44:24;14.20;;;4.30;;
75488;SDS011;64069;46.396;48.102;2023-09-07T03:46:51;10.95;;;4.00;;
75488;SDS011;64069;46.396;48.102;2023-09-07T03:49:17;12.45;;;3.67;;
75488;SDS011;64069;46.396;48.102;2023-09-07T03:51:44;10.13;;;3.40;;
75488;SDS011;64069;46.396;48.102;2023-09-07T03:54:10;14.32;;;3.85;;
75488;SDS011;64069;46.396;48.102;2023-09-07T03:56:39;11.32;;;3.53;;
75488;SDS011;64069;46.396;48.102;2023-09-07T03:59:07;9.32;;;3.47;;
75488;SDS011;64069;46.396;48.102;2023-09-07T04:01:32;11.93;;;3.95;;
75488;SDS011;64069;46.396;48.102;2023-09-07T04:03:58;22.77;;;6.30;;
75488;SDS011;64069;46.396;48.102;2023-09-07T04:06:24;24.52;;;5.18;;
75488;SDS011;64069;46.396;48.102;2023-09-07T04:08:50;11.65;;;3.25;;
75488;SDS011;64069;46.396;48.102;2023-09-07T04:11:16;11.57;;;3.60;;
75488;SDS011;64069;46.396;48.102;2023-09-07T04:13:42;6.70;;;3.28;;
75488;SDS011;64069;46.396;48.102;2023-09-07T04:16:08;11.25;;;3.30;;
75488;SDS011;64069;46.396;48.102;2023-09-07T04:18:35;12.95;;;3.17;;
75488;SDS011;64069;46.396;48.102;2023-09-07T04:21:07;11.35;;;3.15;;
75488;SDS011;64069;46.396;48.102;2023-09-07T04:23:34;32.97;;;5.82;;
75488;SDS011;64069;46.396;48.102;2023-09-07T04:26:05;6.03;;;3.40;;
75488;SDS011;64069;46.396;48.102;2023-09-07T04:28:36;15.73;;;4.40;;
75488;SDS011;64069;46.396;48.102;2023-09-07T04:31:02;6.47;;;2.88;;
75488;SDS011;64069;46.396;48.102;2023-09-07T04:33:29;6.70;;;3.10;;
75488;SDS011;64069;46.396;48.102;2023-09-07T04:35:56;10.63;;;2.80;;
75488;SDS011;64069;46.396;48.102;2023-09-07T04:38:23;10.35;;;3.47;;
75488;SDS011;64069;46.396;48.102;2023-09-07T04:40:49;13.18;;;3.70;;
75488;SDS011;64069;46.396;48.102;2023-09-07T04:43:15;7.97;;;3.45;;
75488;SDS011;64069;46.396;48.102;2023-09-07T04:45:47;14.30;;;3.28;;
75488;SDS011;64069;46.396;48.102;2023-09-07T04:48:17;16.67;;;4.88;;
75488;SDS011;64069;46.396;48.102;2023-09-07T04:50:43;9.80;;;3.28;;
75488;SDS011;64069;46.396;48.102;2023-09-07T04:53:09;13.18;;;5.43;;
75488;SDS011;64069;46.396;48.102;2023-09-07T04:55:37;18.25;;;4.68;;
75488;SDS011;64069;46.396;48.102;2023-09-07T04:58:04;14.52;;;5.90;;
75488;SDS011;64069;46.396;48.102;2023-09-07T05:00:30;12.73;;;6.47;;
75488;SDS011;64069;46.396;48.102;2023-09-07T05:02:56;16.10;;;6.70;;
75488;SDS011;64069;46.396;48.102;2023-09-07T05:05:22;13.10;;;4.88;;
75488;SDS011;64069;46.396;48.102;2023-09-07T05:07:48;16.73;;;3.95;;
75488;SDS011;64069;46.396;48.102;2023-09-07T05:10:14;7.25;;;3.08;;
75488;SDS011;64069;46.396;48.102;2023-09-07T05:12:40;6.80;;;2.88;;
75488;SDS011;64069;46.396;48.102;2023-09-07T05:15:06;14.73;;;3.35;;
75488;SDS011;64069;46.396;48.102;2023-09-07T05:17:33;18.60;;;3.63;;
75488;SDS011;64069;46.396;48.102;2023-09-07T05:19:59;13.68;;;3.33;;
75488;SDS011;64069;46.396;48.102;2023-09-07T05:22:25;11.80;;;3.25;;
75488;SDS011;64069;46.396;48.102;2023-09-07T05:24:52;15.57;;;3.75;;
75488;SDS011;64069;46.396;48.102;2023-09-07T05:27:18;11.20;;;4.32;;
75488;SDS011;64069;46.396;48.102;2023-09-07T05:29:44;12.38;;;3.55;;
75488;SDS011;64069;46.396;48.102;2023-09-07T05:32:10;12.10;;;3.78;;
75488;SDS011;64069;46.396;48.102;2023-09-07T05:34:36;10.93;;;3.85;;
75488;SDS011;64069;46.396;48.102;2023-09-07T05:37:02;31.13;;;4.25;;
75488;SDS011;64069;46.396;48.102;2023-09-07T05:39:28;13.35;;;3.22;;
75488;SDS011;64069;46.396;48.102;2023-09-07T05:41:54;7.88;;;3.58;;
75488;SDS011;64069;46.396;48.102;2023-09-07T05:44:20;15.13;;;3.40;;
75488;SDS011;64069;46.396;48.102;2023-09-07T05:46:46;11.10;;;3.83;;
75488;SDS011;64069;46.396;48.102;2023-09-07T05:49:13;40.90;;;4.82;;
75488;SDS011;64069;46.396;48.102;2023-09-07T05:51:39;12.90;;;3.47;;
75488;SDS011;64069;46.396;48.102;2023-09-07T05:54:05;20.30;;;3.45;;
75488;SDS011;64069;46.396;48.102;2023-09-07T05:56:31;9.43;;;3.25;;
75488;SDS011;64069;46.396;48.102;2023-09-07T05:58:59;10.70;;;3.33;;
75488;SDS011;64069;46.396;48.102;2023-09-07T06:01:24;8.32;;;3.38;;
75488;SDS011;64069;46.396;48.102;2023-09-07T06:03:51;16.80;;;3.50;;
75488;SDS011;64069;46.396;48.102;2023-09-07T06:06:17;27.75;;;4.47;;
75488;SDS011;64069;46.396;48.102;2023-09-07T06:08:42;9.88;;;3.67;;
75488;SDS011;64069;46.396;48.102;2023-09-07T06:11:08;26.50;;;3.80;;
75488;SDS011;64069;46.396;48.102;2023-09-07T06:13:35;13.60;;;3.25;;
75488;SDS011;64069;46.396;48.102;2023-09-07T06:16:01;11.35;;;3.50;;
75488;SDS011;64069;46.396;48.102;2023-09-07T06:18:27;15.50;;;2.85;;
75488;SDS011;64069;46.396;48.102;2023-09-07T06:20:53;8.25;;;2.80;;
75488;SDS011;64069;46.396;48.102;2023-09-07T06:23:19;11.65;;;2.72;;
75488;SDS011;64069;46.396;48.102;2023-09-07T06:25:45;9.02;;;2.58;;
75488;SDS011;64069;46.396;48.102;2023-09-07T06:28:12;27.92;;;3.70;;
75488;SDS011;64069;46.396;48.102;2023-09-07T06:30:38;7.47;;;2.55;;
75488;SDS011;64069;46.396;48.102;2023-09-07T06:33:04;15.35;;;3.10;;
75488;SDS011;64069;46.396;48.102;2023-09-07T06:35:30;10.57;;;2.40;;
75488;SDS011;64069;46.396;48.102;2023-09-07T06:37:56;14.40;;;3.00;;
75488;SDS011;64069;46.396;48.102;2023-09-07T06:40:23;9.40;;;2.40;;
75488;SDS011;64069;46.396;48.102;2023-09-07T06:42:53;22.05;;;3.95;;
75488;SDS011;64069;46.396;48.102;2023-09-07T06:45:21;5.65;;;2.90;;
75488;SDS011;64069;46.396;48.102;2023-09-07T06:47:51;9.35;;;2.63;;
75488;SDS011;64069;46.396;48.102;2023-09-07T06:50:20;8.30;;;2.85;;
75488;SDS011;64069;46.396;48.102;2023-09-07T06:52:47;7.72;;;2.63;;
75488;SDS011;64069;46.396;48.102;2023-09-07T06:55:13;9.93;;;2.47;;
75488;SDS011;64069;46.396;48.102;2023-09-07T06:57:39;9.10;;;2.28;;
75488;SDS011;64069;46.396;48.102;2023-09-07T07:00:06;9.57;;;2.83;;
75488;SDS011;64069;46.396;48.102;2023-09-07T07:02:33;9.68;;;2.70;;
75488;SDS011;64069;46.396;48.102;2023-09-07T07:05:00;62.17;;;5.78;;
75488;SDS011;64069;46.396;48.102;2023-09-07T07:07:28;11.18;;;2.58;;
75488;SDS011;64069;46.396;48.102;2023-09-07T07:09:55;20.17;;;3.58;;
75488;SDS011;64069;46.396;48.102;2023-09-07T07:12:21;27.88;;;5.00;;
75488;SDS011;64069;46.396;48.102;2023-09-07T07:14:47;34.03;;;5.55;;
75488;SDS011;64069;46.396;48.102;2023-09-07T07:17:13;51.47;;;5.70;;
75488;SDS011;64069;46.396;48.102;2023-09-07T07:19:39;6.30;;;2.42;;
75488;SDS011;64069;46.396;48.102;2023-09-07T07:22:06;4.75;;;2.30;;
75488;SDS011;64069;46.396;48.102;2023-09-07T07:24:34;9.73;;;2.38;;
75488;SDS011;64069;46.396;48.102;2023-09-07T07:26:59;49.67;;;5.78;;
75488;SDS011;64069;46.396;48.102;2023-09-07T07:29:28;14.75;;;2.97;;
75488;SDS011;64069;46.396;48.102;2023-09-07T07:31:55;5.47;;;2.10;;
75488;SDS011;64069;46.396;48.102;2023-09-07T07:34:21;7.90;;;2.10;;
75488;SDS011;64069;46.396;48.102;2023-09-07T07:36:47;35.00;;;3.63;;
75488;SDS011;64069;46.396;48.102;2023-09-07T07:39:14;8.35;;;2.28;;
75488;SDS011;64069;46.396;48.102;2023-09-07T07:41:41;15.23;;;2.63;;
75488;SDS011;64069;46.396;48.102;2023-09-07T07:44:07;7.45;;;2.13;;
75488;SDS011;64069;46.396;48.102;2023-09-07T07:46:34;3.03;;;1.63;;
75488;SDS011;64069;46.396;48.102;2023-09-07T07:49:00;6.28;;;1.67;;
75488;SDS011;64069;46.396;48.102;2023-09-07T07:51:27;4.70;;;2.40;;
75488;SDS011;64069;46.396;48.102;2023-09-07T07:53:55;6.72;;;1.88;;
75488;SDS011;64069;46.396;48.102;2023-09-07T07:56:24;67.35;;;6.43;;
75488;SDS011;64069;46.396;48.102;2023-09-07T07:58:53;19.27;;;2.13;;
75488;SDS011;64069;46.396;48.102;2023-09-07T08:01:19;7.32;;;2.08;;
75488;SDS011;64069;46.396;48.102;2023-09-07T08:03:47;5.63;;;2.17;;
75488;SDS011;64069;46.396;48.102;2023-09-07T08:06:14;8.73;;;1.88;;
75488;SDS011;64069;46.396;48.102;2023-09-07T08:08:40;5.30;;;1.83;;
75488;SDS011;64069;46.396;48.102;2023-09-07T08:11:06;5.95;;;2.13;;
75488;SDS011;64069;46.396;48.102;2023-09-07T08:13:35;6.05;;;1.70;;
75488;SDS011;64069;46.396;48.102;2023-09-07T08:16:03;4.60;;;1.95;;
75488;SDS011;64069;46.396;48.102;2023-09-07T08:18:31;4.88;;;1.80;;
75488;SDS011;64069;46.396;48.102;2023-09-07T08:21:00;8.93;;;2.20;;
75488;SDS011;64069;46.396;48.102;2023-09-07T08:23:26;7.28;;;2.53;;
75488;SDS011;64069;46.396;48.102;2023-09-07T08:25:53;12.43;;;2.25;;
75488;SDS011;64069;46.396;48.102;2023-09-07T08:28:21;6.00;;;1.88;;
75488;SDS011;64069;46.396;48.102;2023-09-07T08:30:51;5.82;;;1.60;;
75488;SDS011;64069;46.396;48.102;2023-09-07T08:33:20;11.60;;;2.13;;
75488;SDS011;64069;46.396;48.102;2023-09-07T08:35:55;6.88;;;1.98;;
75488;SDS011;64069;46.396;48.102;2023-09-07T08:38:22;44.95;;;4.13;;
75488;SDS011;64069;46.396;48.102;2023-09-07T08:40:54;7.70;;;2.00;;
75488;SDS011;64069;46.396;48.102;2023-09-07T08:43:21;8.40;;;2.50;;
75488;SDS011;64069;46.396;48.102;2023-09-07T08:45:49;6.78;;;2.00;;
75488;SDS011;64069;46.396;48.102;2023-09-07T08:48:18;2.47;;;1.50;;
75488;SDS011;64069;46.396;48.102;2023-09-07T08:50:45;9.38;;;1.92;;
75488;SDS011;64069;46.396;48.102;2023-09-07T08:53:19;13.43;;;2.13;;
75488;SDS011;64069;46.396;48.102;2023-09-07T08:55:45;4.07;;;2.05;;
75488;SDS011;64069;46.396;48.102;2023-09-07T08:58:12;6.43;;;2.03;;
75488;SDS011;64069;46.396;48.102;2023-09-07T09:00:39;14.88;;;2.30;;
75488;SDS011;64069;46.396;48.102;2023-09-07T09:03:09;8.18;;;2.13;;
75488;SDS011;64069;46.396;48.102;2023-09-07T09:05:36;3.25;;;1.58;;
75488;SDS011;64069;46.396;48.102;2023-09-07T09:08:05;4.65;;;1.73;;
75488;SDS011;64069;46.396;48.102;2023-09-07T09:10:32;9.98;;;5.15;;
75488;SDS011;64069;46.396;48.102;2023-09-07T09:12:58;8.52;;;3.35;;
75488;SDS011;64069;46.396;48.102;2023-09-07T09:15:26;5.55;;;2.25;;
75488;SDS011;64069;46.396;48.102;2023-09-07T09:17:53;11.18;;;2.20;;
75488;SDS011;64069;46.396;48.102;2023-09-07T09:20:27;15.52;;;2.33;;
75488;SDS011;64069;46.396;48.102;2023-09-07T09:22:54;3.92;;;2.15;;
75488;SDS011;64069;46.396;48.102;2023-09-07T09:25:23;51.80;;;7.05;;
75488;SDS011;64069;46.396;48.102;2023-09-07T09:27:49;11.15;;;2.40;;
75488;SDS011;64069;46.396;48.102;2023-09-07T09:30:15;9.38;;;2.28;;
75488;SDS011;64069;46.396;48.102;2023-09-07T09:32:42;70.00;;;6.20;;
75488;SDS011;64069;46.396;48.102;2023-09-07T09:35:09;13.40;;;2.65;;
75488;SDS011;64069;46.396;48.102;2023-09-07T09:37:44;9.38;;;2.63;;
75488;SDS011;64069;46.396;48.102;2023-09-07T09:40:12;9.48;;;2.25;;
75488;SDS011;64069;46.396;48.102;2023-09-07T09:42:41;11.00;;;2.50;;
75488;SDS011;64069;46.396;48.102;2023-09-07T09:45:09;34.83;;;4.60;;
75488;SDS011;64069;46.396;48.102;2023-09-07T09:47:40;19.88;;;2.63;;
75488;SDS011;64069;46.396;48.102;2023-09-07T09:50:08;7.18;;;2.15;;
75488;SDS011;64069;46.396;48.102;2023-09-07T09:52:36;21.42;;;4.15;;
75488;SDS011;64069;46.396;48.102;2023-09-07T09:55:06;26.45;;;3.97;;
75488;SDS011;64069;46.396;48.102;2023-09-07T09:57:36;22.38;;;4.90;;
75488;SDS011;64069;46.396;48.102;2023-09-07T10:00:03;7.45;;;2.15;;
75488;SDS011;64069;46.396;48.102;2023-09-07T10:05:25;29.00;;;3.35;;
75488;SDS011;64069;46.396;48.102;2023-09-07T10:07:52;54.25;;;7.13;;
75488;SDS011;64069;46.396;48.102;2023-09-07T10:10:18;17.13;;;2.53;;
75488;SDS011;64069;46.396;48.102;2023-09-07T10:12:45;11.45;;;3.03;;
75488;SDS011;64069;46.396;48.102;2023-09-07T10:15:22;15.23;;;2.78;;
75488;SDS011;64069;46.396;48.102;2023-09-07T10:17:48;7.60;;;2.03;;
75488;SDS011;64069;46.396;48.102;2023-09-07T10:20:18;10.50;;;2.75;;
75488;SDS011;64069;46.396;48.102;2023-09-07T10:22:48;6.82;;;1.88;;
75488;SDS011;64069;46.396;48.102;2023-09-07T10:25:18;20.95;;;2.75;;
75488;SDS011;64069;46.396;48.102;2023-09-07T10:27:47;9.32;;;2.58;;
75488;SDS011;64069;46.396;48.102;2023-09-07T10:30:14;5.18;;;1.85;;
75488;SDS011;64069;46.396;48.102;2023-09-07T10:32:49;26.20;;;3.28;;
75488;SDS011;64069;46.396;48.102;2023-09-07T10:35:16;17.17;;;2.90;;
75488;SDS011;64069;46.396;48.102;2023-09-07T10:40:18;63.78;;;5.57;;
75488;SDS011;64069;46.396;48.102;2023-09-07T10:42:45;7.85;;;2.78;;
75488;SDS011;64069;46.396;48.102;2023-09-07T10:45:11;31.88;;;3.63;;
75488;SDS011;64069;46.396;48.102;2023-09-07T10:47:41;15.45;;;3.63;;
75488;SDS011;64069;46.396;48.102;2023-09-07T10:50:12;4.55;;;1.95;;
75488;SDS011;64069;46.396;48.102;2023-09-07T10:52:41;6.25;;;2.05;;
75488;SDS011;64069;46.396;48.102;2023-09-07T10:55:08;15.27;;;2.30;;
75488;SDS011;64069;46.396;48.102;2023-09-07T10:57:42;5.93;;;1.95;;
75488;SDS011;64069;46.396;48.102;2023-09-07T11:00:11;10.07;;;2.30;;
75488;SDS011;64069;46.396;48.102;2023-09-07T11:02:38;23.42;;;4.78;;
75488;SDS011;64069;46.396;48.102;2023-09-07T11:05:06;6.90;;;2.25;;
75488;SDS011;64069;46.396;48.102;2023-09-07T11:07:33;17.70;;;2.72;;
75488;SDS011;64069;46.396;48.102;2023-09-07T11:09:59;6.35;;;2.42;;
75488;SDS011;64069;46.396;48.102;2023-09-07T11:12:26;20.75;;;3.65;;
75488;SDS011;64069;46.396;48.102;2023-09-07T11:14:52;5.25;;;2.55;;
75488;SDS011;64069;46.396;48.102;2023-09-07T11:17:25;9.02;;;2.50;;
75488;SDS011;64069;46.396;48.102;2023-09-07T11:19:53;4.85;;;2.40;;
75488;SDS011;64069;46.396;48.102;2023-09-07T11:22:21;15.55;;;2.75;;
75488;SDS011;64069;46.396;48.102;2023-09-07T11:24:48;5.53;;;2.35;;
75488;SDS011;64069;46.396;48.102;2023-09-07T11:27:19;9.30;;;2.67;;
75488;SDS011;64069;46.396;48.102;2023-09-07T11:29:50;13.25;;;2.50;;
75488;SDS011;64069;46.396;48.102;2023-09-07T11:32:17;14.23;;;2.40;;
75488;SDS011;64069;46.396;48.102;2023-09-07T11:34:48;11.75;;;2.42;;
75488;SDS011;64069;46.396;48.102;2023-09-07T11:37:15;10.38;;;2.58;;
75488;SDS011;64069;46.396;48.102;2023-09-07T11:39:42;6.40;;;2.40;;
75488;SDS011;64069;46.396;48.102;2023-09-07T11:42:09;19.20;;;2.85;;
75488;SDS011;64069;46.396;48.102;2023-09-07T11:44:36;9.88;;;2.80;;
75488;SDS011;64069;46.396;48.102;2023-09-07T11:47:02;15.35;;;2.70;;
75488;SDS011;64069;46.396;48.102;2023-09-07T11:49:29;10.40;;;2.53;;
75488;SDS011;64069;46.396;48.102;2023-09-07T11:51:57;10.40;;;2.30;;
75488;SDS011;64069;46.396;48.102;2023-09-07T11:54:23;7.68;;;2.20;;
75488;SDS011;64069;46.396;48.102;2023-09-07T11:56:49;8.23;;;2.38;;
75488;SDS011;64069;46.396;48.102;2023-09-07T11:59:15;5.50;;;2.20;;
75488;SDS011;64069;46.396;48.102;2023-09-07T12:01:45;17.95;;;2.78;;
75488;SDS011;64069;46.396;48.102;2023-09-07T12:04:11;9.30;;;2.60;;
75488;SDS011;64069;46.396;48.102;2023-09-07T12:06:37;6.88;;;2.40;;
75488;SDS011;64069;46.396;48.102;2023-09-07T12:09:04;8.23;;;2.30;;
75488;SDS011;64069;46.396;48.102;2023-09-07T12:11:35;5.22;;;2.30;;
75488;SDS011;64069;46.396;48.102;2023-09-07T12:14:01;9.18;;;3.33;;
75488;SDS011;64069;46.396;48.102;2023-09-07T12:16:27;5.47;;;2.50;;
75488;SDS011;64069;46.396;48.102;2023-09-07T12:18:54;5.60;;;2.50;;
75488;SDS011;64069;46.396;48.102;2023-09-07T12:21:20;12.85;;;2.42;;
75488;SDS011;64069;46.396;48.102;2023-09-07T12:23:46;7.30;;;2.13;;
75488;SDS011;64069;46.396;48.102;2023-09-07T12:26:12;3.42;;;2.20;;
75488;SDS011;64069;46.396;48.102;2023-09-07T12:28:39;11.10;;;2.90;;
75488;SDS011;64069;46.396;48.102;2023-09-07T12:31:06;7.05;;;2.33;;
75488;SDS011;64069;46.396;48.102;2023-09-07T12:33:31;10.40;;;2.53;;
75488;SDS011;64069;46.396;48.102;2023-09-07T12:35:58;13.68;;;2.83;;
75488;SDS011;64069;46.396;48.102;2023-09-07T12:38:25;10.52;;;2.72;;
75488;SDS011;64069;46.396;48.102;2023-09-07T12:40:54;12.07;;;3.97;;
75488;SDS011;64069;46.396;48.102;2023-09-07T12:43:20;12.15;;;3.50;;
75488;SDS011;64069;46.396;48.102;2023-09-07T12:45:46;13.50;;;3.25;;
75488;SDS011;64069;46.396;48.102;2023-09-07T12:48:12;17.90;;;3.05;;
75488;SDS011;64069;46.396;48.102;2023-09-07T12:50:38;19.63;;;2.83;;
75488;SDS011;64069;46.396;48.102;2023-09-07T12:53:08;6.50;;;2.80;;
75488;SDS011;64069;46.396;48.102;2023-09-07T12:55:34;8.40;;;2.58;;
75488;SDS011;64069;46.396;48.102;2023-09-07T12:58:00;6.95;;;2.38;;
75488;SDS011;64069;46.396;48.102;2023-09-07T13:00:27;11.77;;;2.50;;
75488;SDS011;64069;46.396;48.102;2023-09-07T13:02:54;9.65;;;2.30;;
75488;SDS011;64069;46.396;48.102;2023-09-07T13:05:22;28.65;;;3.53;;
75488;SDS011;64069;46.396;48.102;2023-09-07T13:07:50;10.52;;;2.75;;
75488;SDS011;64069;46.396;48.102;2023-09-07T13:10:17;15.95;;;3.10;;
75488;SDS011;64069;46.396;48.102;2023-09-07T13:12:44;7.60;;;2.80;;
75488;SDS011;64069;46.396;48.102;2023-09-07T13:15:10;9.07;;;3.00;;
75488;SDS011;64069;46.396;48.102;2023-09-07T13:17:36;19.88;;;3.80;;
75488;SDS011;64069;46.396;48.102;2023-09-07T13:20:02;7.57;;;3.15;;
75488;SDS011;64069;46.396;48.102;2023-09-07T13:22:30;14.00;;;3.20;;
75488;SDS011;64069;46.396;48.102;2023-09-07T13:24:56;9.68;;;2.42;;
75488;SDS011;64069;46.396;48.102;2023-09-07T13:27:22;8.45;;;3.15;;
75488;SDS011;64069;46.396;48.102;2023-09-07T13:29:50;9.30;;;2.92;;
75488;SDS011;64069;46.396;48.102;2023-09-07T13:32:20;7.78;;;2.60;;
75488;SDS011;64069;46.396;48.102;2023-09-07T13:34:46;11.77;;;2.72;;
75488;SDS011;64069;46.396;48.102;2023-09-07T13:37:12;7.65;;;2.67;;
75488;SDS011;64069;46.396;48.102;2023-09-07T13:39:39;6.80;;;2.70;;
75488;SDS011;64069;46.396;48.102;2023-09-07T13:42:05;12.30;;;2.90;;
75488;SDS011;64069;46.396;48.102;2023-09-07T13:44:31;5.63;;;2.30;;
75488;SDS011;64069;46.396;48.102;2023-09-07T13:46:57;9.23;;;2.40;;
75488;SDS011;64069;46.396;48.102;2023-09-07T13:49:24;7.07;;;2.58;;
75488;SDS011;64069;46.396;48.102;2023-09-07T13:51:50;7.07;;;2.28;;
75488;SDS011;64069;46.396;48.102;2023-09-07T13:54:16;17.20;;;3.45;;
75488;SDS011;64069;46.396;48.102;2023-09-07T13:56:42;14.73;;;3.28;;
75488;SDS011;64069;46.396;48.102;2023-09-07T13:59:10;36.72;;;4.53;;
75488;SDS011;64069;46.396;48.102;2023-09-07T14:01:37;13.73;;;3.45;;
75488;SDS011;64069;46.396;48.102;2023-09-07T14:04:03;13.48;;;4.47;;
75488;SDS011;64069;46.396;48.102;2023-09-07T14:06:30;13.02;;;3.92;;
75488;SDS011;64069;46.396;48.102;2023-09-07T14:08:56;7.20;;;2.70;;
75488;SDS011;64069;46.396;48.102;2023-09-07T14:11:22;13.25;;;3.35;;
75488;SDS011;64069;46.396;48.102;2023-09-07T14:13:49;7.97;;;2.75;;
75488;SDS011;64069;46.396;48.102;2023-09-07T14:16:20;12.43;;;3.63;;
75488;SDS011;64069;46.396;48.102;2023-09-07T14:18:46;21.10;;;3.63;;
75488;SDS011;64069;46.396;48.102;2023-09-07T14:21:14;11.60;;;3.10;;
75488;SDS011;64069;46.396;48.102;2023-09-07T14:23:40;13.93;;;3.60;;
75488;SDS011;64069;46.396;48.102;2023-09-07T14:26:08;15.73;;;3.97;;
75488;SDS011;64069;46.396;48.102;2023-09-07T14:28:35;16.95;;;3.63;;
75488;SDS011;64069;46.396;48.102;2023-09-07T14:31:02;15.18;;;3.28;;